Time;durP1;ratioP1;P1;durP2;ratioP2;P2;SDS_P1;SDS_P2;PMS_P1;PMS_P2;Temp;Humidity;BMP_temperature;BMP_pressure;BME280_temperature;BME280_humidity;BME280_pressure;Samples;Min_cycle;Max_cycle;Signal;HPM_P1;HPM_P2
2020/12/12 00:00:46;;;;;;;;;;;4.30;99.90;;;;;;5015124;28;19913;-87
2020/12/12 00:03:11;;;;;;;;;;;4.20;99.90;;;;;;5015322;28;20362;-86
2020/12/12 00:05:38;;;;;;;;;;;4.20;99.90;;;;;;5014990;28;19917;-86
2020/12/12 00:08:03;;;;;;;;;;;4.20;99.90;;;;;;5015152;28;19909;-87
2020/12/12 00:10:29;;;;;;;;;;;4.20;99.90;;;;;;5015089;28;20278;-85
2020/12/12 00:12:57;;;;;;;;;;;4.20;99.90;;;;;;5014588;28;19909;-87
2020/12/12 00:15:22;;;;;;;;;;;4.20;99.90;;;;;;5014898;28;20008;-87
2020/12/12 00:17:48;;;;;;;;;;;4.20;99.90;;;;;;5014785;28;19968;-87
2020/12/12 00:20:14;;;;;;;;;;;4.20;99.90;;;;;;5014534;28;19913;-87
2020/12/12 00:22:41;;;;;;;;;;;4.20;99.90;;;;;;5014623;28;19913;-86
2020/12/12 00:25:09;;;;;;;;;;;4.10;99.90;;;;;;5014654;28;19910;-88
2020/12/12 00:27:39;;;;;;;;;;;4.20;99.90;;;;;;5014864;28;19913;-86
2020/12/12 00:30:07;;;;;;;;;;;4.20;99.90;;;;;;5014433;28;19909;-87
2020/12/12 00:32:33;;;;;;;;;;;4.20;99.90;;;;;;5014657;28;19909;-87
2020/12/12 00:35:01;;;;;;;;;;;4.10;99.90;;;;;;5014681;28;19916;-87
2020/12/12 00:37:30;;;;;;;;;;;4.10;99.90;;;;;;5014623;28;20000;-88
2020/12/12 00:39:56;;;;;;;;;;;4.20;99.90;;;;;;5014304;28;20246;-88
2020/12/12 00:42:21;;;;;;;;;;;4.20;99.90;;;;;;5014261;28;19943;-86
2020/12/12 00:44:47;;;;;;;;;;;4.20;99.90;;;;;;5014236;28;19909;-87
2020/12/12 00:47:13;;;;;;;;;;;4.10;99.90;;;;;;5014093;28;19909;-86
2020/12/12 00:49:38;;;;;;;;;;;4.10;99.90;;;;;;5014447;28;20261;-86
2020/12/12 00:52:04;;;;;;;;;;;4.10;99.90;;;;;;5013820;28;19909;-86
2020/12/12 00:54:30;;;;;;;;;;;4.10;99.90;;;;;;5013884;28;19945;-86
2020/12/12 00:56:58;;;;;;;;;;;4.10;99.90;;;;;;5014146;28;19909;-86
2020/12/12 00:59:23;;;;;;;;;;;4.10;99.90;;;;;;5014116;28;19910;-87
2020/12/12 01:01:49;;;;;;;;;;;4.10;99.90;;;;;;5014055;28;20328;-87
2020/12/12 01:04:14;;;;;;;;;;;4.10;99.90;;;;;;5014266;28;19996;-87
2020/12/12 01:06:40;;;;;;;;;;;4.10;99.90;;;;;;5014054;28;19909;-86
2020/12/12 01:09:06;;;;;;;;;;;4.10;99.90;;;;;;5013281;28;20358;-87
2020/12/12 01:11:31;;;;;;;;;;;4.10;99.90;;;;;;5013830;28;19920;-86
2020/12/12 01:13:57;;;;;;;;;;;4.10;99.90;;;;;;5013733;28;20004;-87
2020/12/12 01:16:25;;;;;;;;;;;4.10;99.90;;;;;;5013785;28;19945;-86
2020/12/12 01:18:50;;;;;;;;;;;4.10;99.90;;;;;;5013581;28;19955;-85
2020/12/12 01:21:21;;;;;;;;;;;4.10;99.90;;;;;;5013662;28;20063;-86
2020/12/12 01:23:47;;;;;;;;;;;4.10;99.90;;;;;;5013354;28;19909;-87
2020/12/12 01:26:12;;;;;;;;;;;4.10;99.90;;;;;;5013699;28;20380;-86
2020/12/12 01:28:41;;;;;;;;;;;4.10;99.90;;;;;;5013613;28;19909;-87
2020/12/12 01:31:10;;;;;;;;;;;4.10;99.90;;;;;;5013958;28;19910;-86
2020/12/12 01:33:35;;;;;;;;;;;4.10;99.90;;;;;;5013369;28;19991;-86
2020/12/12 01:36:01;;;;;;;;;;;4.10;99.90;;;;;;5013280;28;19913;-87
2020/12/12 01:38:26;;;;;;;;;;;4.10;99.90;;;;;;5013212;28;19914;-86
2020/12/12 01:40:55;;;;;;;;;;;4.10;99.90;;;;;;5013122;28;19975;-86
2020/12/12 01:43:21;;;;;;;;;;;4.10;99.90;;;;;;5013266;28;19909;-86
2020/12/12 01:45:49;;;;;;;;;;;4.10;99.90;;;;;;5013435;28;19916;-86
2020/12/12 01:48:14;;;;;;;;;;;4.10;99.90;;;;;;5013344;28;20008;-86
2020/12/12 01:50:40;;;;;;;;;;;4.10;99.90;;;;;;5013120;28;20012;-86
2020/12/12 01:53:08;;;;;;;;;;;4.10;99.90;;;;;;5013288;28;19916;-86
2020/12/12 01:55:35;;;;;;;;;;;4.10;99.90;;;;;;5013385;28;19909;-86
2020/12/12 01:58:01;;;;;;;;;;;4.00;99.90;;;;;;5013133;28;20115;-86
2020/12/12 02:00:26;;;;;;;;;;;4.00;99.90;;;;;;5013024;28;19964;-86
2020/12/12 02:02:53;;;;;;;;;;;4.10;99.90;;;;;;5013157;28;20293;-86
2020/12/12 02:05:42;;;;;;;;;;;4.10;99.90;;;;;;5012995;28;19909;-85
2020/12/12 02:08:13;;;;;;;;;;;4.10;99.90;;;;;;5012805;28;19963;-87
2020/12/12 02:10:49;;;;;;;;;;;4.10;99.90;;;;;;5012901;28;19916;-87
2020/12/12 02:13:18;;;;;;;;;;;4.10;99.90;;;;;;5012867;28;19910;-87
2020/12/12 02:15:44;;;;;;;;;;;4.10;99.90;;;;;;5012694;28;19910;-86
2020/12/12 02:18:20;;;;;;;;;;;4.10;99.90;;;;;;5013085;28;19914;-87
2020/12/12 02:20:52;;;;;;;;;;;4.10;99.90;;;;;;5016417;28;20388;-86
2020/12/12 02:23:21;;;;;;;;;;;4.20;99.90;;;;;;5017236;28;20068;-86
2020/12/12 02:25:47;;;;;;;;;;;4.20;99.90;;;;;;5016919;28;19910;-86
2020/12/12 02:28:16;;;;;;;;;;;4.20;99.90;;;;;;5016810;28;20284;-86
2020/12/12 02:30:42;;;;;;;;;;;4.20;99.90;;;;;;5016937;28;20284;-86
2020/12/12 02:33:07;;;;;;;;;;;4.20;99.90;;;;;;5017055;28;19909;-86
2020/12/12 02:35:35;;;;;;;;;;;4.20;99.90;;;;;;5016746;28;19941;-86
2020/12/12 02:38:01;;;;;;;;;;;4.20;99.90;;;;;;5016707;28;20238;-87
2020/12/12 02:40:26;;;;;;;;;;;4.20;99.90;;;;;;5016128;28;19913;-86
2020/12/12 02:42:54;;;;;;;;;;;4.20;99.90;;;;;;5016621;28;19916;-86
2020/12/12 02:45:22;;;;;;;;;;;4.10;99.90;;;;;;5016722;28;19910;-86
2020/12/12 02:47:48;;;;;;;;;;;4.20;99.90;;;;;;5016406;28;19918;-86
2020/12/12 02:50:14;;;;;;;;;;;4.20;99.90;;;;;;5016449;28;19913;-87
2020/12/12 02:52:41;;;;;;;;;;;4.20;99.90;;;;;;5016270;28;20380;-87
2020/12/12 02:55:07;;;;;;;;;;;4.10;99.90;;;;;;5017495;28;19917;-86
2020/12/12 02:57:34;;;;;;;;;;;4.10;99.90;;;;;;5015966;28;19917;-86
2020/12/12 02:59:59;;;;;;;;;;;4.10;99.90;;;;;;5016323;28;20000;-85
2020/12/12 03:02:25;;;;;;;;;;;4.10;99.90;;;;;;5016559;28;19959;-87
2020/12/12 03:04:53;;;;;;;;;;;4.10;99.90;;;;;;5016027;28;19913;-86
2020/12/12 03:07:19;;;;;;;;;;;4.10;99.90;;;;;;5016105;28;19916;-85
2020/12/12 03:09:44;;;;;;;;;;;4.10;99.90;;;;;;5016083;28;19910;-86
2020/12/12 03:12:10;;;;;;;;;;;4.10;99.90;;;;;;5015795;28;19916;-85
2020/12/12 03:14:35;;;;;;;;;;;4.10;99.90;;;;;;5015994;28;20015;-85
2020/12/12 03:17:03;;;;;;;;;;;4.00;99.90;;;;;;5015972;28;19914;-86
2020/12/12 03:19:29;;;;;;;;;;;4.00;99.90;;;;;;5015885;28;19915;-86
2020/12/12 03:21:54;;;;;;;;;;;4.00;99.90;;;;;;5015786;28;20359;-85
2020/12/12 03:24:20;;;;;;;;;;;4.00;99.90;;;;;;5016953;28;19913;-86
2020/12/12 03:26:50;;;;;;;;;;;4.00;99.90;;;;;;5015904;28;19916;-84
2020/12/12 03:29:15;;;;;;;;;;;3.90;99.90;;;;;;5015763;28;19913;-85
2020/12/12 03:31:43;;;;;;;;;;;3.90;99.90;;;;;;5014895;28;20358;-84
2020/12/12 03:34:08;;;;;;;;;;;3.90;99.90;;;;;;5015432;28;20373;-85
2020/12/12 03:36:34;;;;;;;;;;;3.90;99.90;;;;;;5015308;28;19917;-86
2020/12/12 03:38:59;;;;;;;;;;;4.00;99.90;;;;;;5015343;28;19913;-88
2020/12/12 03:41:25;;;;;;;;;;;3.90;99.90;;;;;;5015070;28;19922;-86
2020/12/12 03:43:50;;;;;;;;;;;3.90;99.90;;;;;;5015390;28;20377;-88
2020/12/12 03:46:16;;;;;;;;;;;3.90;99.90;;;;;;5015505;28;20317;-85
2020/12/12 03:48:42;;;;;;;;;;;3.90;99.90;;;;;;5015658;28;19909;-84
2020/12/12 03:51:08;;;;;;;;;;;3.90;99.90;;;;;;5015242;28;19909;-84
2020/12/12 03:53:33;;;;;;;;;;;3.90;99.90;;;;;;5015096;28;20000;-88
2020/12/12 03:55:59;;;;;;;;;;;3.90;99.90;;;;;;5015258;28;19948;-85
2020/12/12 03:58:24;;;;;;;;;;;4.00;99.90;;;;;;5015235;28;20549;-87
2020/12/12 04:00:50;;;;;;;;;;;3.90;99.90;;;;;;5014812;28;19913;-88
2020/12/12 04:03:15;;;;;;;;;;;3.90;99.90;;;;;;5014783;28;19914;-88
2020/12/12 04:05:44;;;;;;;;;;;4.00;99.90;;;;;;5015099;28;20024;-87
2020/12/12 04:08:10;;;;;;;;;;;3.90;99.90;;;;;;5014830;28;19909;-86
2020/12/12 04:10:35;;;;;;;;;;;4.00;99.90;;;;;;5014946;28;19909;-87
2020/12/12 04:13:03;;;;;;;;;;;4.00;99.90;;;;;;5015170;28;19913;-87
2020/12/12 04:15:32;;;;;;;;;;;3.90;99.90;;;;;;5015096;28;20357;-86
2020/12/12 04:17:57;;;;;;;;;;;3.90;99.90;;;;;;5015962;28;19913;-87
2020/12/12 04:20:25;;;;;;;;;;;3.90;99.90;;;;;;5014816;28;19921;-88
2020/12/12 04:22:51;;;;;;;;;;;3.90;99.90;;;;;;5014362;28;20000;-87
2020/12/12 04:25:16;;;;;;;;;;;3.90;99.90;;;;;;5014763;28;20405;-88
2020/12/12 04:27:44;;;;;;;;;;;3.90;99.90;;;;;;5014600;28;19909;-87
2020/12/12 04:30:10;;;;;;;;;;;3.90;99.90;;;;;;5014634;28;19932;-87
2020/12/12 04:32:36;;;;;;;;;;;3.90;99.90;;;;;;5014653;28;19916;-88
2020/12/12 04:35:04;;;;;;;;;;;3.90;99.90;;;;;;5014277;28;20015;-88
2020/12/12 04:37:32;;;;;;;;;;;3.80;99.90;;;;;;5014310;28;19910;-87
2020/12/12 04:40:00;;;;;;;;;;;3.90;99.90;;;;;;5014414;28;19909;-88
2020/12/12 04:42:29;;;;;;;;;;;3.90;99.90;;;;;;5014207;28;19922;-90
2020/12/12 04:44:57;;;;;;;;;;;3.90;99.90;;;;;;5014399;28;19916;-86
2020/12/12 04:47:26;;;;;;;;;;;3.90;99.90;;;;;;5014530;28;20242;-88
2020/12/12 04:49:51;;;;;;;;;;;3.90;99.90;;;;;;5014297;28;19913;-86
2020/12/12 04:52:17;;;;;;;;;;;3.90;99.90;;;;;;5014303;28;19917;-86
2020/12/12 04:54:53;;;;;;;;;;;3.90;99.90;;;;;;5014193;28;20007;-87
2020/12/12 04:57:19;;;;;;;;;;;3.90;99.90;;;;;;5013964;28;19914;-86
2020/12/12 04:59:44;;;;;;;;;;;3.90;99.90;;;;;;5013990;28;19917;-87
2020/12/12 05:02:12;;;;;;;;;;;3.90;99.90;;;;;;5013978;28;19917;-87
2020/12/12 05:04:39;;;;;;;;;;;3.90;99.90;;;;;;5013593;28;19913;-85
2020/12/12 05:07:11;;;;;;;;;;;3.90;99.90;;;;;;5015145;28;19932;-87
2020/12/12 05:09:42;;;;;;;;;;;3.90;99.90;;;;;;5014077;28;19913;-87
2020/12/12 05:12:08;;;;;;;;;;;3.90;99.90;;;;;;5013752;28;19910;-87
2020/12/12 05:14:34;;;;;;;;;;;3.90;99.90;;;;;;5013671;28;19916;-89
2020/12/12 05:16:59;;;;;;;;;;;3.90;99.90;;;;;;5013931;28;19910;-88
2020/12/12 05:19:28;;;;;;;;;;;4.00;99.90;;;;;;5014476;28;19916;-91
2020/12/12 05:21:56;;;;;;;;;;;4.10;99.90;;;;;;5014343;28;19933;-90
2020/12/12 05:24:28;;;;;;;;;;;4.20;99.90;;;;;;5014169;28;19910;-93
2020/12/12 05:26:59;;;;;;;;;;;4.30;99.90;;;;;;5013835;28;19909;-92
2020/12/12 05:29:24;;;;;;;;;;;4.30;99.90;;;;;;5013804;28;19932;-92
2020/12/12 05:31:55;;;;;;;;;;;4.30;99.90;;;;;;5013818;28;19909;-94
2020/12/12 05:34:21;;;;;;;;;;;4.30;99.90;;;;;;5014160;28;19909;-91
2020/12/12 05:37:08;;;;;;;;;;;4.30;99.90;;;;;;5013786;28;19996;-90
2020/12/12 05:39:34;;;;;;;;;;;4.30;99.90;;;;;;5014779;28;20281;-92
2020/12/12 05:42:01;;;;;;;;;;;4.30;99.90;;;;;;5012648;28;20637;-91
2020/12/12 05:44:35;;;;;;;;;;;4.40;99.90;;;;;;5014536;28;19952;-92
2020/12/12 05:47:10;;;;;;;;;;;4.30;99.90;;;;;;5013584;28;19968;-91
2020/12/12 05:50:02;;;;;;;;;;;4.40;99.90;;;;;;5014547;28;20008;-91
2020/12/12 05:52:38;;;;;;;;;;;4.40;99.90;;;;;;5013962;28;19921;-91
2020/12/12 05:55:06;;;;;;;;;;;4.40;99.90;;;;;;5145223;22;19919;-92
2020/12/12 05:57:32;;;;;;;;;;;4.40;99.90;;;;;;5155312;22;19925;-93
2020/12/12 06:02:27;;;;;;;;;;;4.40;99.90;;;;;;5147105;22;20295;-86
2020/12/12 06:04:56;;;;;;;;;;;4.40;99.90;;;;;;5026875;28;19913;-86
2020/12/12 06:07:29;;;;;;;;;;;4.30;99.90;;;;;;5024402;28;19918;-85
2020/12/12 06:10:02;;;;;;;;;;;4.30;99.90;;;;;;5021996;28;19913;-86
2020/12/12 06:12:28;;;;;;;;;;;4.30;99.90;;;;;;5018240;28;19909;-85
2020/12/12 06:14:55;;;;;;;;;;;4.20;99.90;;;;;;5012808;28;19959;-86
2020/12/12 06:17:29;;;;;;;;;;;4.20;99.90;;;;;;5012835;28;20055;-86
2020/12/12 06:19:57;;;;;;;;;;;4.20;99.90;;;;;;5013117;28;19910;-86
2020/12/12 06:22:24;;;;;;;;;;;4.20;99.90;;;;;;5012725;28;20008;-85
2020/12/12 06:24:57;;;;;;;;;;;4.20;99.90;;;;;;5012996;28;19909;-86
2020/12/12 06:27:29;;;;;;;;;;;4.20;99.90;;;;;;5013000;28;19909;-86
2020/12/12 06:29:57;;;;;;;;;;;4.20;99.90;;;;;;5012830;28;19921;-87
2020/12/12 06:32:23;;;;;;;;;;;4.20;99.90;;;;;;5013143;28;19910;-87
2020/12/12 06:34:52;;;;;;;;;;;4.10;99.90;;;;;;5013155;28;19916;-87
2020/12/12 06:37:24;;;;;;;;;;;4.20;99.90;;;;;;5013902;28;19914;-87
2020/12/12 06:39:53;;;;;;;;;;;4.20;99.90;;;;;;5013027;28;19941;-85
2020/12/12 06:42:33;;;;;;;;;;;4.20;99.90;;;;;;5012652;28;19918;-86
2020/12/12 06:45:01;;;;;;;;;;;4.20;99.90;;;;;;5012802;28;19979;-87
2020/12/12 06:47:40;;;;;;;;;;;4.10;99.90;;;;;;5012802;28;20166;-86
2020/12/12 06:50:09;;;;;;;;;;;4.20;99.90;;;;;;5012799;28;19913;-86
2020/12/12 06:52:37;;;;;;;;;;;4.10;99.90;;;;;;5012729;28;19920;-87
2020/12/12 06:55:08;;;;;;;;;;;4.10;99.90;;;;;;5012573;28;19917;-87
2020/12/12 06:57:39;;;;;;;;;;;4.20;99.90;;;;;;5013106;28;20239;-86
2020/12/12 07:00:09;;;;;;;;;;;4.20;99.90;;;;;;5012607;28;20391;-86
2020/12/12 07:02:51;;;;;;;;;;;4.20;99.90;;;;;;5012503;28;19940;-87
2020/12/12 07:05:21;;;;;;;;;;;4.20;99.90;;;;;;5012655;28;20171;-87
2020/12/12 07:07:46;;;;;;;;;;;4.30;99.90;;;;;;5015758;28;19910;-86
2020/12/12 07:10:14;;;;;;;;;;;4.30;99.90;;;;;;5016424;28;20315;-86
2020/12/12 07:12:40;;;;;;;;;;;4.40;99.90;;;;;;5016082;28;19921;-87
2020/12/12 07:15:10;;;;;;;;;;;4.40;99.90;;;;;;5016103;28;19985;-88
2020/12/12 07:17:36;;;;;;;;;;;4.40;99.90;;;;;;5016174;28;19921;-87
2020/12/12 07:20:02;;;;;;;;;;;4.30;99.90;;;;;;5016176;28;20301;-87
2020/12/12 07:22:31;;;;;;;;;;;4.30;99.90;;;;;;5018442;28;19918;-86
2020/12/12 07:24:57;;;;;;;;;;;4.30;99.90;;;;;;5021647;28;19921;-87
2020/12/12 07:27:22;;;;;;;;;;;4.40;99.90;;;;;;5023150;28;19916;-86
2020/12/12 07:29:48;;;;;;;;;;;4.50;99.90;;;;;;5025446;28;19914;-88
2020/12/12 07:32:13;;;;;;;;;;;4.50;99.90;;;;;;5027124;28;19924;-87
2020/12/12 07:34:39;;;;;;;;;;;4.50;99.90;;;;;;5015533;28;19913;-88
2020/12/12 07:37:08;;;;;;;;;;;4.60;99.90;;;;;;5015721;28;19949;-87
2020/12/12 07:39:38;;;;;;;;;;;4.50;99.90;;;;;;5015688;28;19964;-88
2020/12/12 07:42:04;;;;;;;;;;;4.50;99.90;;;;;;5023251;28;19924;-87
2020/12/12 07:44:31;;;;;;;;;;;4.60;99.90;;;;;;5024788;28;20328;-87
2020/12/12 07:46:58;;;;;;;;;;;4.60;99.90;;;;;;5029646;28;19914;-89
2020/12/12 07:49:28;;;;;;;;;;;4.60;99.90;;;;;;5025787;28;19909;-89
2020/12/12 07:52:20;;;;;;;;;;;4.70;99.90;;;;;;5025720;28;19914;-87
2020/12/12 07:54:50;;;;;;;;;;;4.70;99.90;;;;;;5026447;28;19932;-87
2020/12/12 07:57:16;;;;;;;;;;;4.80;99.90;;;;;;5025003;28;19910;-87
2020/12/12 07:59:42;;;;;;;;;;;4.80;99.90;;;;;;5023364;28;19999;-87
2020/12/12 08:02:14;;;;;;;;;;;4.80;99.90;;;;;;5025876;28;19925;-87
2020/12/12 08:04:40;;;;;;;;;;;4.80;99.90;;;;;;5020377;28;19910;-88
2020/12/12 08:07:13;;;;;;;;;;;4.90;99.90;;;;;;5025192;28;19916;-87
2020/12/12 08:09:45;;;;;;;;;;;4.90;99.90;;;;;;5023559;28;19910;-87
2020/12/12 08:12:12;;;;;;;;;;;4.90;99.90;;;;;;5032191;28;20348;-88
2020/12/12 08:14:46;;;;;;;;;;;4.90;99.90;;;;;;5034843;28;19909;-87
2020/12/12 08:17:14;;;;;;;;;;;5.00;99.90;;;;;;5022511;28;19913;-89
2020/12/12 08:19:49;;;;;;;;;;;5.00;99.90;;;;;;5024473;28;19992;-88
2020/12/12 08:22:19;;;;;;;;;;;5.00;99.90;;;;;;5023423;28;20368;-88
2020/12/12 08:24:44;;;;;;;;;;;5.10;99.90;;;;;;5023714;28;19929;-89
2020/12/12 08:27:14;;;;;;;;;;;5.10;99.90;;;;;;5024904;28;20253;-88
2020/12/12 08:29:43;;;;;;;;;;;5.10;99.90;;;;;;5024194;28;20380;-89
2020/12/12 08:32:25;;;;;;;;;;;5.10;99.90;;;;;;5023042;28;19918;-89
2020/12/12 08:34:50;;;;;;;;;;;5.20;99.90;;;;;;5017006;28;19959;-89
2020/12/12 08:37:19;;;;;;;;;;;5.20;99.90;;;;;;5014947;28;19913;-88
2020/12/12 08:39:45;;;;;;;;;;;5.20;99.90;;;;;;5014398;28;20009;-89
2020/12/12 08:42:10;;;;;;;;;;;5.20;99.90;;;;;;5014446;28;19980;-88
2020/12/12 08:44:36;;;;;;;;;;;5.30;99.90;;;;;;5014314;28;19921;-88
2020/12/12 08:47:01;;;;;;;;;;;5.30;99.90;;;;;;5021143;28;20257;-88
2020/12/12 08:49:32;;;;;;;;;;;5.30;99.90;;;;;;5024551;28;20356;-89
2020/12/12 08:51:57;;;;;;;;;;;5.30;99.90;;;;;;5024728;28;19910;-87
2020/12/12 08:54:23;;;;;;;;;;;5.40;99.90;;;;;;5022174;28;19979;-88
2020/12/12 08:56:51;;;;;;;;;;;5.40;99.90;;;;;;5024913;28;19916;-88
2020/12/12 09:02:17;;;;;;;;;;;5.40;99.90;;;;;;5026416;28;20341;-88
2020/12/12 09:04:45;;;;;;;;;;;5.50;99.90;;;;;;5023880;28;20361;-87
2020/12/12 09:07:21;;;;;;;;;;;5.50;99.90;;;;;;5021942;28;19931;-87
2020/12/12 09:09:47;;;;;;;;;;;5.60;99.90;;;;;;5024319;28;19910;-88
2020/12/12 09:12:15;;;;;;;;;;;5.60;99.90;;;;;;5018903;28;19933;-88
2020/12/12 09:14:43;;;;;;;;;;;5.60;99.90;;;;;;5013690;28;19910;-86
2020/12/12 09:17:10;;;;;;;;;;;5.70;99.90;;;;;;5014081;28;20420;-89
2020/12/12 09:19:38;;;;;;;;;;;5.80;99.90;;;;;;5013983;28;19984;-88
2020/12/12 09:22:10;;;;;;;;;;;5.90;99.90;;;;;;5013601;28;20280;-88
2020/12/12 09:24:35;;;;;;;;;;;5.90;99.90;;;;;;5025996;28;19917;-88
2020/12/12 09:27:01;;;;;;;;;;;5.90;99.90;;;;;;5033303;28;19920;-88
2020/12/12 09:29:27;;;;;;;;;;;5.90;99.90;;;;;;5032685;28;19909;-87
2020/12/12 09:31:55;;;;;;;;;;;6.00;99.90;;;;;;5033494;28;19954;-88
2020/12/12 09:34:21;;;;;;;;;;;6.00;99.90;;;;;;5033231;28;19909;-88
2020/12/12 09:36:47;;;;;;;;;;;6.00;99.90;;;;;;5033294;28;19916;-88
2020/12/12 09:39:13;;;;;;;;;;;6.00;99.90;;;;;;5032765;28;19909;-90
2020/12/12 09:41:41;;;;;;;;;;;6.10;99.90;;;;;;5032954;28;19999;-89
2020/12/12 09:44:06;;;;;;;;;;;6.20;99.90;;;;;;5033342;28;19996;-88
2020/12/12 09:46:32;;;;;;;;;;;6.20;99.90;;;;;;5028566;28;19952;-89
2020/12/12 09:48:58;;;;;;;;;;;6.30;99.90;;;;;;5021630;28;19917;-88
2020/12/12 09:51:24;;;;;;;;;;;6.30;99.90;;;;;;5023978;28;19960;-89
2020/12/12 09:53:50;;;;;;;;;;;6.30;99.90;;;;;;5021499;28;19913;-88
2020/12/12 09:56:16;;;;;;;;;;;6.30;99.90;;;;;;5023045;28;19917;-87
2020/12/12 09:58:42;;;;;;;;;;;6.30;99.90;;;;;;5018864;28;20360;-88
2020/12/12 10:01:10;;;;;;;;;;;6.30;99.90;;;;;;5021469;28;19913;-88
2020/12/12 10:03:36;;;;;;;;;;;6.30;99.90;;;;;;5015092;28;19968;-88
2020/12/12 10:06:02;;;;;;;;;;;6.30;99.90;;;;;;5014203;28;19920;-89
2020/12/12 10:08:30;;;;;;;;;;;6.30;99.90;;;;;;5011183;28;19914;-90
2020/12/12 10:10:55;;;;;;;;;;;6.30;99.90;;;;;;5011738;28;20007;-88
2020/12/12 10:13:21;;;;;;;;;;;6.30;99.90;;;;;;5010257;28;19913;-88
2020/12/12 10:15:47;;;;;;;;;;;6.30;99.90;;;;;;5006324;28;19909;-88
2020/12/12 10:18:13;;;;;;;;;;;6.40;99.90;;;;;;5007120;28;20004;-88
2020/12/12 10:20:41;;;;;;;;;;;6.40;99.90;;;;;;4999245;28;20012;-89
2020/12/12 10:23:09;;;;;;;;;;;6.40;99.90;;;;;;4996592;28;19916;-89
2020/12/12 10:25:37;;;;;;;;;;;6.40;99.90;;;;;;5015311;28;19917;-88
2020/12/12 10:28:05;;;;;;;;;;;6.40;99.90;;;;;;5016262;28;19909;-87
2020/12/12 10:30:35;;;;;;;;;;;6.40;99.90;;;;;;5016255;28;19909;-88
2020/12/12 10:33:01;;;;;;;;;;;6.40;99.90;;;;;;5016349;28;19909;-90
2020/12/12 10:35:29;;;;;;;;;;;6.40;99.90;;;;;;5016540;28;20276;-89
2020/12/12 10:37:55;;;;;;;;;;;6.40;99.90;;;;;;5010502;28;20406;-87
2020/12/12 10:42:55;;;;;;;;;;;6.50;99.90;;;;;;5030999;28;19913;-89
2020/12/12 10:45:24;;;;;;;;;;;6.60;99.90;;;;;;5010077;28;19921;-89
2020/12/12 10:47:57;;;;;;;;;;;6.60;99.90;;;;;;5009931;28;19917;-88
2020/12/12 10:50:22;;;;;;;;;;;6.70;99.90;;;;;;5008909;28;19937;-89
2020/12/12 10:52:49;;;;;;;;;;;6.80;99.90;;;;;;5011684;28;20082;-88
2020/12/12 10:55:17;;;;;;;;;;;6.80;99.90;;;;;;5008689;28;19939;-89
2020/12/12 10:57:43;;;;;;;;;;;6.80;99.90;;;;;;5025420;28;19909;-90
2020/12/12 11:00:23;;;;;;;;;;;6.80;99.90;;;;;;5011343;28;20387;-89
2020/12/12 11:02:51;;;;;;;;;;;6.80;99.90;;;;;;5024176;28;19956;-90
2020/12/12 11:05:17;;;;;;;;;;;6.80;99.90;;;;;;5035890;28;20408;-88
2020/12/12 11:07:42;;;;;;;;;;;6.90;99.90;;;;;;5035208;28;20007;-88
2020/12/12 11:10:08;;;;;;;;;;;6.90;99.90;;;;;;5033884;28;19915;-90
2020/12/12 11:12:36;;;;;;;;;;;6.90;99.90;;;;;;5036118;28;19963;-89
2020/12/12 11:15:02;;;;;;;;;;;6.90;99.90;;;;;;5032461;28;19921;-89
2020/12/12 11:17:30;;;;;;;;;;;6.90;99.90;;;;;;5031955;28;19909;-88
2020/12/12 11:19:58;;;;;;;;;;;6.90;99.90;;;;;;5027283;28;19913;-90
2020/12/12 11:22:26;;;;;;;;;;;6.90;99.90;;;;;;5034823;28;20387;-88
2020/12/12 11:24:51;;;;;;;;;;;6.90;99.90;;;;;;5034944;28;19920;-88
2020/12/12 11:27:22;;;;;;;;;;;6.90;99.90;;;;;;5035257;28;20345;-88
2020/12/12 11:29:47;;;;;;;;;;;6.90;99.90;;;;;;5035454;28;19909;-90
2020/12/12 11:32:13;;;;;;;;;;;6.90;99.90;;;;;;5036289;28;20483;-89
2020/12/12 11:34:43;;;;;;;;;;;6.90;99.90;;;;;;5035128;28;19909;-89
2020/12/12 11:37:29;;;;;;;;;;;6.90;99.90;;;;;;5035778;28;19916;-87
2020/12/12 11:48:21;;;;;;;;;;;6.90;99.90;;;;;;5012821;28;19954;-88
2020/12/12 11:50:49;;;;;;;;;;;6.90;99.90;;;;;;5034985;28;19909;-88
2020/12/12 11:53:14;;;;;;;;;;;6.90;99.90;;;;;;5034289;28;19915;-88
2020/12/12 11:55:43;;;;;;;;;;;6.90;99.90;;;;;;5034893;28;20008;-88
2020/12/12 11:58:08;;;;;;;;;;;6.90;99.90;;;;;;5035517;28;19920;-87
2020/12/12 12:00:34;;;;;;;;;;;6.90;99.90;;;;;;5034857;28;19917;-88
2020/12/12 12:03:01;;;;;;;;;;;6.90;99.90;;;;;;5034819;28;20008;-87
2020/12/12 12:05:29;;;;;;;;;;;6.80;99.90;;;;;;5034290;28;19992;-88
2020/12/12 12:07:55;;;;;;;;;;;6.80;99.90;;;;;;5035080;28;20012;-88
2020/12/12 12:12:46;;;;;;;;;;;6.90;99.90;;;;;;5035951;28;19951;-87
2020/12/12 12:15:12;;;;;;;;;;;6.80;99.90;;;;;;5034798;28;20360;-88
2020/12/12 12:17:38;;;;;;;;;;;6.80;99.90;;;;;;5034793;28;19909;-88
2020/12/12 12:20:04;;;;;;;;;;;6.90;99.90;;;;;;5034605;28;20051;-87
2020/12/12 12:22:34;;;;;;;;;;;6.90;99.90;;;;;;5034474;28;19917;-87
2020/12/12 12:24:59;;;;;;;;;;;6.90;99.90;;;;;;5034619;28;19916;-87
2020/12/12 12:27:27;;;;;;;;;;;6.90;99.90;;;;;;5034566;28;20004;-88
2020/12/12 12:29:53;;;;;;;;;;;6.90;99.90;;;;;;5028538;28;19910;-87
2020/12/12 12:32:18;;;;;;;;;;;6.90;99.90;;;;;;5026081;28;19915;-88
2020/12/12 12:34:46;;;;;;;;;;;6.80;99.90;;;;;;5034244;28;19916;-88
2020/12/12 12:37:17;;;;;;;;;;;6.80;99.90;;;;;;5024983;28;19909;-87
2020/12/12 12:39:43;;;;;;;;;;;6.80;99.90;;;;;;5030878;28;19955;-87
2020/12/12 12:42:08;;;;;;;;;;;6.80;99.90;;;;;;5034414;28;19917;-89
2020/12/12 12:44:36;;;;;;;;;;;6.80;99.90;;;;;;5033414;28;19913;-87
2020/12/12 12:47:02;;;;;;;;;;;6.80;99.90;;;;;;5021287;28;19913;-87
2020/12/12 12:49:27;;;;;;;;;;;6.70;99.90;;;;;;5034203;28;20039;-87
2020/12/12 12:51:53;;;;;;;;;;;6.80;99.90;;;;;;5034265;28;19909;-88
2020/12/12 12:54:18;;;;;;;;;;;6.80;99.90;;;;;;5033582;28;19916;-87
2020/12/12 12:56:44;;;;;;;;;;;6.70;99.90;;;;;;5033893;28;19913;-88
2020/12/12 12:59:12;;;;;;;;;;;6.80;99.90;;;;;;5033941;28;19913;-87
2020/12/12 13:01:40;;;;;;;;;;;6.80;99.90;;;;;;5033986;28;19960;-88
2020/12/12 13:04:08;;;;;;;;;;;6.80;99.90;;;;;;5028499;28;20015;-87
2020/12/12 13:06:36;;;;;;;;;;;6.80;99.90;;;;;;5033643;28;19936;-87
2020/12/12 13:09:04;;;;;;;;;;;6.80;99.90;;;;;;5033148;28;19910;-87
2020/12/12 13:11:30;;;;;;;;;;;6.80;99.90;;;;;;5033545;28;20000;-88
2020/12/12 13:13:56;;;;;;;;;;;6.70;99.90;;;;;;5032078;28;20000;-90
2020/12/12 13:16:25;;;;;;;;;;;6.70;99.90;;;;;;5033626;28;19909;-87
2020/12/12 13:22:03;;;;;;;;;;;6.80;99.90;;;;;;5006642;28;19921;-87
2020/12/12 13:24:30;;;;;;;;;;;6.80;99.90;;;;;;5022209;28;20257;-87
2020/12/12 13:27:01;;;;;;;;;;;6.70;99.90;;;;;;5028655;28;20309;-86
2020/12/12 13:32:11;;;;;;;;;;;6.70;99.90;;;;;;5032568;28;20278;-87
2020/12/12 13:34:39;;;;;;;;;;;6.70;99.90;;;;;;5024907;28;20307;-87
2020/12/12 13:37:04;;;;;;;;;;;6.70;99.90;;;;;;5028480;28;19920;-89
2020/12/12 13:39:31;;;;;;;;;;;6.70;99.90;;;;;;5031147;28;19952;-87
2020/12/12 13:42:02;;;;;;;;;;;6.70;99.90;;;;;;5032615;28;19917;-88
2020/12/12 13:44:30;;;;;;;;;;;6.70;99.90;;;;;;5033649;28;19996;-88
2020/12/12 13:46:58;;;;;;;;;;;6.70;99.90;;;;;;5030349;28;19917;-88
2020/12/12 13:49:23;;;;;;;;;;;6.70;99.90;;;;;;5030740;28;19952;-88
2020/12/12 13:51:49;;;;;;;;;;;6.70;99.90;;;;;;5029095;28;19920;-88
2020/12/12 13:54:15;;;;;;;;;;;6.70;99.90;;;;;;5029254;28;19976;-88
2020/12/12 13:56:43;;;;;;;;;;;6.70;99.90;;;;;;5029348;28;19920;-89
2020/12/12 13:59:13;;;;;;;;;;;6.80;99.90;;;;;;5029452;28;19909;-87
2020/12/12 14:01:39;;;;;;;;;;;6.90;99.90;;;;;;5032232;28;19925;-89
2020/12/12 14:04:04;;;;;;;;;;;6.80;99.90;;;;;;5030027;28;19937;-88
2020/12/12 14:06:32;;;;;;;;;;;6.90;99.90;;;;;;5032052;28;20019;-87
2020/12/12 14:24:40;;;;;;;;;;;6.80;99.90;;;;;;5035969;28;19916;-88
2020/12/12 14:29:50;;;;;;;;;;;6.90;99.90;;;;;;5036618;28;19963;-90
2020/12/12 14:32:15;;;;;;;;;;;6.90;99.90;;;;;;5035863;28;19952;-88
2020/12/12 14:34:43;;;;;;;;;;;6.90;99.90;;;;;;5038012;28;20076;-89
2020/12/12 14:37:09;;;;;;;;;;;6.90;99.90;;;;;;5037329;28;19912;-88
2020/12/12 14:39:35;;;;;;;;;;;6.80;99.90;;;;;;5038039;28;20281;-87
2020/12/12 14:42:00;;;;;;;;;;;6.80;99.90;;;;;;5036075;28;19921;-86
2020/12/12 14:44:28;;;;;;;;;;;6.80;99.90;;;;;;5036471;28;19909;-89
2020/12/12 14:46:55;;;;;;;;;;;6.80;99.90;;;;;;5038641;28;20220;-86
2020/12/12 14:49:21;;;;;;;;;;;6.70;99.90;;;;;;5038298;28;19909;-87
2020/12/12 14:51:47;;;;;;;;;;;6.80;99.90;;;;;;5035488;28;20000;-89
2020/12/12 14:54:17;;;;;;;;;;;6.80;99.90;;;;;;5034040;28;19921;-88
2020/12/12 14:56:45;;;;;;;;;;;6.70;99.90;;;;;;5026349;28;19911;-89
2020/12/12 14:59:13;;;;;;;;;;;6.70;99.90;;;;;;5031235;28;19914;-89
2020/12/12 15:01:38;;;;;;;;;;;6.80;99.90;;;;;;5032763;28;19917;-87
2020/12/12 15:04:04;;;;;;;;;;;6.80;99.90;;;;;;5033806;28;19991;-87
2020/12/12 15:06:32;;;;;;;;;;;6.70;99.90;;;;;;5038731;28;20276;-88
2020/12/12 15:09:00;;;;;;;;;;;6.80;99.90;;;;;;5037526;28;19913;-87
2020/12/12 15:11:25;;;;;;;;;;;6.80;99.90;;;;;;5025336;28;20023;-89
2020/12/12 15:13:53;;;;;;;;;;;6.80;99.90;;;;;;5032258;28;19985;-88
2020/12/12 15:16:21;;;;;;;;;;;6.80;99.90;;;;;;5033602;28;19909;-87